createdAt,value
2023-04-22T04:00:27.609Z,100688.00
2023-04-22T04:02:55.993Z,100692.00
2023-04-22T04:05:24.761Z,100696.00
2023-04-22T04:07:53.018Z,100696.00
2023-04-22T04:10:21.301Z,100689.00
2023-04-22T04:12:49.535Z,100688.00
2023-04-22T04:15:18.887Z,100697.00
2023-04-22T04:17:48.544Z,100697.00
2023-04-22T04:20:17.398Z,100691.00
2023-04-22T04:22:46.317Z,100700.00
2023-04-22T04:25:14.529Z,100701.00
2023-04-22T04:27:42.778Z,100706.00
2023-04-22T04:30:11.963Z,100695.00
2023-04-22T04:32:40.189Z,100695.00
2023-04-22T04:35:12.963Z,100696.00
2023-04-22T04:37:41.396Z,100697.00
2023-04-22T04:40:12.098Z,100693.00
2023-04-22T04:42:40.572Z,100702.00
2023-04-22T04:45:10.222Z,100696.00
2023-04-22T04:47:39.003Z,100696.00
2023-04-22T04:50:09.843Z,100699.00
2023-04-22T04:52:38.132Z,100704.00
2023-04-22T04:55:07.078Z,100701.00
2023-04-22T04:57:37.229Z,100701.00
2023-04-22T05:00:08.434Z,100702.00
2023-04-22T05:02:36.925Z,100707.00
2023-04-22T05:05:06.604Z,100707.00
2023-04-22T05:07:36.503Z,100698.00
2023-04-22T05:10:06.024Z,100691.00
2023-04-22T05:12:34.273Z,100713.00
2023-04-22T05:15:02.826Z,100708.00
2023-04-22T05:17:31.141Z,100699.00
2023-04-22T05:19:59.327Z,100705.00
2023-04-22T05:22:28.027Z,100701.00
2023-04-22T05:24:57.581Z,100698.00
2023-04-22T05:27:25.891Z,100696.00
2023-04-22T05:29:54.068Z,100698.00
2023-04-22T05:32:22.463Z,100709.00
2023-04-22T05:34:50.814Z,100701.00
2023-04-22T05:37:19.048Z,100704.00
2023-04-22T05:39:47.272Z,100708.00
2023-04-22T05:42:16.943Z,100708.00
2023-04-22T05:44:45.181Z,100703.00
2023-04-22T05:47:13.484Z,100702.00
2023-04-22T05:49:42.055Z,100707.00
2023-04-22T05:52:10.561Z,100704.00
2023-04-22T05:54:39.045Z,100700.00
2023-04-22T05:57:07.706Z,100709.00
2023-04-22T05:59:37.371Z,100710.00
2023-04-22T06:02:05.687Z,100706.00
2023-04-22T06:04:37.186Z,100704.00
2023-04-22T06:07:06.047Z,100707.00
2023-04-22T06:09:34.287Z,100707.00
2023-04-22T06:12:03.064Z,100704.00
2023-04-22T06:14:31.312Z,100710.00
2023-04-22T06:17:00.850Z,100711.00
2023-04-22T06:19:29.217Z,100694.00
2023-04-22T06:21:57.527Z,100709.00
2023-04-22T06:24:25.888Z,100709.00
2023-04-22T06:26:54.078Z,100709.00
2023-04-22T06:29:22.667Z,100710.00
2023-04-22T06:31:50.936Z,100712.00
2023-04-22T06:34:20.906Z,100710.00
2023-04-22T06:36:49.130Z,100705.00
2023-04-22T06:39:17.330Z,100706.00
2023-04-22T06:41:45.519Z,100714.00
2023-04-22T06:44:13.704Z,100713.00
2023-04-22T06:46:42.008Z,100709.00
2023-04-22T06:49:10.238Z,100700.00
2023-04-22T06:51:39.945Z,100703.00
2023-04-22T06:54:08.145Z,100708.00
2023-04-22T06:56:36.646Z,100709.00
2023-04-22T06:59:04.957Z,100709.00
2023-04-22T07:01:33.160Z,100708.00
2023-04-22T07:04:01.569Z,100705.00
2023-04-22T07:06:29.920Z,100710.00
2023-04-22T07:08:59.491Z,100702.00
2023-04-22T07:11:27.959Z,100710.00
2023-04-22T07:13:56.192Z,100708.00
2023-04-22T07:16:24.447Z,100707.00
2023-04-22T07:18:52.656Z,100715.00
2023-04-22T07:21:21.000Z,100707.00
2023-04-22T07:23:49.323Z,100707.00
2023-04-22T07:26:19.099Z,100712.00
2023-04-22T07:28:47.320Z,100713.00
2023-04-22T07:31:16.098Z,100704.00
2023-04-22T07:33:44.593Z,100711.00
2023-04-22T07:36:12.678Z,100703.00
2023-04-22T07:38:41.005Z,100701.00
2023-04-22T07:41:09.532Z,100705.00
2023-04-22T07:43:39.097Z,100709.00
2023-04-22T07:46:07.304Z,100703.00
2023-04-22T07:48:36.533Z,100706.00
2023-04-22T07:51:05.153Z,100707.00
2023-04-22T07:53:33.350Z,100702.00
2023-04-22T07:56:03.518Z,100695.00
2023-04-22T07:58:31.755Z,100693.00
2023-04-22T08:01:01.421Z,100679.00
2023-04-22T08:03:30.305Z,100695.00
2023-04-22T08:05:59.125Z,100680.00
2023-04-22T08:08:28.698Z,100688.00
2023-04-22T08:10:56.939Z,100687.00
2023-04-22T08:13:26.067Z,100679.00
2023-04-22T08:15:54.391Z,100679.00
2023-04-22T08:18:24.038Z,100672.00
2023-04-22T08:20:52.199Z,100682.00
2023-04-22T08:23:21.353Z,100663.00
2023-04-22T08:25:49.983Z,100658.00
2023-04-22T08:28:18.315Z,100664.00
2023-04-22T08:30:46.528Z,100674.00
2023-04-22T08:33:14.851Z,100659.00
2023-04-22T08:35:44.634Z,100660.00
2023-04-22T08:38:12.845Z,100664.00
2023-04-22T08:40:43.076Z,100668.00
2023-04-22T08:43:12.402Z,100657.00
2023-04-22T08:45:41.668Z,100657.00
2023-04-22T08:48:11.597Z,100662.00
2023-04-22T08:50:40.557Z,100660.00
2023-04-22T08:53:10.359Z,100658.00
2023-04-22T08:55:41.058Z,100662.00
2023-04-22T08:58:09.685Z,100655.00
2023-04-22T09:00:38.035Z,100664.00
2023-04-22T09:03:08.791Z,100640.00
2023-04-22T09:05:41.635Z,100663.00
2023-04-22T09:08:12.054Z,100655.00
2023-04-22T09:10:40.965Z,100659.00
2023-04-22T09:13:09.501Z,100661.00
2023-04-22T09:15:37.966Z,100651.00
2023-04-22T09:18:06.534Z,100655.00
2023-04-22T09:20:34.758Z,100655.00
2023-04-22T09:23:05.842Z,100649.00
2023-04-22T09:25:36.450Z,100651.00
2023-04-22T09:28:04.807Z,100640.00
2023-04-22T09:30:36.524Z,100639.00
2023-04-22T09:33:07.064Z,100642.00
2023-04-22T09:35:38.575Z,100632.00
2023-04-22T09:38:09.248Z,100626.00
2023-04-22T09:40:44.267Z,100609.00
2023-04-22T09:43:13.055Z,100627.00
2023-04-22T09:45:43.538Z,100624.00
2023-04-22T09:48:13.847Z,100616.00
2023-04-22T09:50:46.111Z,100616.00
2023-04-22T09:53:17.205Z,100626.00
2023-04-22T09:55:49.253Z,100622.00
2023-04-22T09:58:20.778Z,100611.00
2023-04-22T10:00:52.980Z,100588.00
2023-04-22T10:03:22.365Z,100615.00
2023-04-22T10:05:51.081Z,100606.00
2023-04-22T10:08:19.291Z,100605.00
2023-04-22T10:10:48.875Z,100599.00
2023-04-22T10:13:17.159Z,100601.00
2023-04-22T10:15:52.862Z,100590.00
2023-04-22T10:18:26.968Z,100600.00
2023-04-22T10:20:57.756Z,100597.00
2023-04-22T10:23:26.568Z,100595.00
2023-04-22T10:25:57.540Z,100591.00
2023-04-22T10:28:30.744Z,100589.00
2023-04-22T10:30:59.159Z,100583.00
2023-04-22T10:33:41.262Z,100576.00
2023-04-22T10:36:17.439Z,100579.00
2023-04-22T10:39:17.625Z,100575.00
2023-04-22T10:41:54.252Z,100567.00
2023-04-22T10:44:24.323Z,100565.00
2023-04-22T10:47:02.188Z,100558.00
2023-04-22T10:49:34.802Z,100526.00
2023-04-22T10:52:05.001Z,100571.00
2023-04-22T10:55:02.494Z,100561.00
2023-04-22T10:57:42.769Z,100563.00
2023-04-22T11:00:41.821Z,100557.00
2023-04-22T11:03:17.959Z,100552.00
2023-04-22T11:05:47.139Z,100544.00
2023-04-22T11:08:21.746Z,100532.00
2023-04-22T11:10:52.396Z,100538.00
2023-04-22T11:13:23.356Z,100531.00
2023-04-22T11:15:55.451Z,100549.00
2023-04-22T11:18:26.135Z,100542.00
2023-04-22T11:20:55.376Z,100546.00
2023-04-22T11:23:27.000Z,100534.00
2023-04-22T11:26:00.313Z,100529.00
2023-04-22T11:28:30.383Z,100534.00
2023-04-22T11:31:08.441Z,100539.00
2023-04-22T11:33:39.026Z,100529.00
2023-04-22T11:36:11.687Z,100530.00
2023-04-22T11:38:40.242Z,100532.00
2023-04-22T11:41:08.457Z,100530.00
2023-04-22T11:43:48.542Z,100533.00
2023-04-22T11:46:16.873Z,100526.00
2023-04-22T11:48:45.635Z,100520.00
2023-04-22T11:51:14.136Z,100525.00
2023-04-22T11:53:51.946Z,100513.00
2023-04-22T11:56:22.434Z,100528.00
2023-04-22T11:58:52.101Z,100509.00
2023-04-22T12:01:20.346Z,100524.00
2023-04-22T12:03:50.413Z,100514.00
2023-04-22T12:06:18.854Z,100520.00
2023-04-22T12:08:47.428Z,100524.00
2023-04-22T12:11:15.693Z,100511.00
2023-04-22T12:13:47.272Z,100518.00
2023-04-22T12:16:21.365Z,100524.00
2023-04-22T12:18:51.788Z,100512.00
2023-04-22T12:21:24.111Z,100526.00
2023-04-22T12:23:54.908Z,100500.00
2023-04-22T12:26:26.919Z,100522.00
2023-04-22T12:28:57.912Z,100499.00
2023-04-22T12:31:28.820Z,100493.00
2023-04-22T12:33:57.571Z,100509.00
2023-04-22T12:36:26.144Z,100512.00
2023-04-22T12:38:54.666Z,100514.00
2023-04-22T12:41:23.565Z,100505.00
2023-04-22T12:43:52.480Z,100494.00
2023-04-22T12:46:21.027Z,100499.00
2023-04-22T12:48:50.604Z,100491.00
2023-04-22T12:51:18.888Z,100492.00
2023-04-22T12:53:48.021Z,100501.00
2023-04-22T12:56:16.394Z,100495.00
2023-04-22T12:58:44.623Z,100502.00
2023-04-22T13:01:12.889Z,100514.00
2023-04-22T13:03:41.251Z,100497.00
2023-04-22T13:06:11.274Z,100498.00
2023-04-22T13:08:39.504Z,100495.00
2023-04-22T13:11:07.726Z,100480.00
2023-04-22T13:13:36.117Z,100492.00
2023-04-22T13:16:04.375Z,100482.00
2023-04-22T13:18:32.560Z,100497.00
2023-04-22T13:21:00.718Z,100482.00
2023-04-22T13:23:30.785Z,100481.00
2023-04-22T13:25:58.918Z,100480.00
2023-04-22T13:28:27.149Z,100479.00
2023-04-22T13:30:55.845Z,100482.00
2023-04-22T13:33:24.035Z,100482.00
2023-04-22T13:35:52.337Z,100476.00
2023-04-22T13:38:20.664Z,100469.00
2023-04-22T13:40:50.228Z,100474.00
2023-04-22T13:43:18.402Z,100461.00
2023-04-22T13:45:48.286Z,100458.00
2023-04-22T13:48:16.574Z,100455.00
2023-04-22T13:50:44.758Z,100460.00
2023-04-22T13:53:14.133Z,100445.00
2023-04-22T13:55:43.243Z,100444.00
2023-04-22T13:58:12.783Z,100442.00
2023-04-22T14:00:41.324Z,100442.00
2023-04-22T14:03:09.725Z,100428.00
2023-04-22T14:05:38.101Z,100418.00
2023-04-22T14:08:06.402Z,100430.00
2023-04-22T14:10:34.814Z,100429.00
2023-04-22T14:13:03.049Z,100426.00
2023-04-22T14:15:32.609Z,100414.00
2023-04-22T14:18:00.843Z,100413.00
2023-04-22T14:20:29.024Z,100411.00
2023-04-22T14:22:57.178Z,100409.00
2023-04-22T14:25:25.403Z,100412.00
2023-04-22T14:27:53.678Z,100417.00
2023-04-22T14:30:22.272Z,100399.00
2023-04-22T14:32:53.755Z,100397.00
2023-04-22T14:35:22.390Z,100392.00
2023-04-22T14:37:51.674Z,100396.00
2023-04-22T14:40:20.069Z,100392.00
2023-04-22T14:42:48.313Z,100381.00
2023-04-22T14:45:16.458Z,100390.00
2023-04-22T14:47:44.696Z,100391.00
2023-04-22T14:50:14.222Z,100394.00
2023-04-22T14:52:42.748Z,100392.00
2023-04-22T14:55:22.081Z,100382.00
2023-04-22T14:57:53.098Z,100385.00
2023-04-22T15:00:21.813Z,100384.00
2023-04-22T15:02:50.641Z,100378.00
2023-04-22T15:05:22.167Z,100380.00
2023-04-22T15:07:50.471Z,100372.00
2023-04-22T15:10:18.721Z,100365.00
2023-04-22T15:12:47.352Z,100369.00
2023-04-22T15:15:16.128Z,100359.00
2023-04-22T15:17:45.337Z,100365.00
2023-04-22T15:20:14.503Z,100360.00
2023-04-22T15:22:45.888Z,100346.00
2023-04-22T15:25:15.490Z,100350.00
2023-04-22T15:27:45.070Z,100352.00
2023-04-22T15:30:14.402Z,100348.00
2023-04-22T15:32:42.578Z,100353.00
2023-04-22T15:35:11.837Z,100348.00
2023-04-22T15:37:40.692Z,100354.00
2023-04-22T15:40:11.021Z,100346.00
2023-04-22T15:42:39.235Z,100351.00
2023-04-22T15:45:08.950Z,100340.00
2023-04-22T15:47:38.289Z,100334.00
2023-04-22T15:50:09.424Z,100337.00
2023-04-22T15:52:39.211Z,100336.00
2023-04-22T15:55:10.134Z,100331.00
2023-04-22T15:57:38.317Z,100330.00
2023-04-22T16:00:13.005Z,100317.00
2023-04-22T16:02:43.108Z,100310.00
2023-04-22T16:05:12.533Z,100312.00
2023-04-22T16:07:41.197Z,100305.00
2023-04-22T16:10:12.150Z,100308.00
2023-04-22T16:12:40.355Z,100302.00
2023-04-22T16:15:11.473Z,100304.00
2023-04-22T16:17:40.044Z,100293.00
2023-04-22T16:20:10.757Z,100288.00
2023-04-22T16:22:39.190Z,100284.00
2023-04-22T16:25:10.957Z,100287.00
2023-04-22T16:27:39.417Z,100288.00
2023-04-22T16:30:09.144Z,100285.00
2023-04-22T16:32:37.539Z,100279.00
2023-04-22T16:35:07.296Z,100274.00
2023-04-22T16:37:36.685Z,100278.00
2023-04-22T16:40:06.126Z,100277.00
2023-04-22T16:42:36.735Z,100272.00
2023-04-22T16:45:06.547Z,100267.00
2023-04-22T16:47:34.790Z,100274.00
2023-04-22T16:50:03.741Z,100272.00
2023-04-22T16:52:31.988Z,100260.00
2023-04-22T16:55:00.407Z,100268.00
2023-04-22T16:57:28.785Z,100264.00
2023-04-22T16:59:58.403Z,100256.00
2023-04-22T17:02:26.708Z,100252.00
2023-04-22T17:04:55.139Z,100224.00
2023-04-22T17:07:23.294Z,100245.00
2023-04-22T17:09:51.516Z,100248.00
2023-04-22T17:12:19.820Z,100238.00
2023-04-22T17:14:47.986Z,100249.00
2023-04-22T17:17:17.500Z,100240.00
2023-04-22T17:19:45.711Z,100240.00
2023-04-22T17:22:13.877Z,100243.00
2023-04-22T17:24:42.420Z,100233.00
2023-04-22T17:27:14.651Z,100230.00
2023-04-22T17:29:43.264Z,100232.00
2023-04-22T17:32:11.678Z,100232.00
2023-04-22T17:34:41.688Z,100234.00
2023-04-22T17:37:10.193Z,100235.00
2023-04-22T17:39:39.790Z,100242.00
2023-04-22T17:42:08.121Z,100231.00
2023-04-22T17:44:36.902Z,100232.00
2023-04-22T17:47:06.795Z,100234.00
2023-04-22T17:49:35.720Z,100213.00
2023-04-22T17:52:05.681Z,100228.00
2023-04-22T17:54:34.498Z,100232.00
2023-04-22T17:57:03.092Z,100238.00
2023-04-22T17:59:31.349Z,100240.00
2023-04-22T18:02:01.441Z,100240.00
2023-04-22T18:04:29.908Z,100239.00
2023-04-22T18:06:58.113Z,100237.00
2023-04-22T18:09:27.920Z,100230.00
2023-04-22T18:11:58.588Z,100222.00
2023-04-22T18:14:27.672Z,100239.00
2023-04-22T18:16:56.030Z,100235.00
2023-04-22T18:19:24.411Z,100239.00
2023-04-22T18:21:59.624Z,100240.00
2023-04-22T18:24:29.808Z,100244.00
2023-04-22T18:26:58.032Z,100247.00
2023-04-22T18:29:26.352Z,100238.00
2023-04-22T18:31:54.637Z,100241.00
2023-04-22T18:34:23.028Z,100237.00
2023-04-22T18:36:51.599Z,100245.00
2023-04-22T18:39:19.787Z,100212.00
2023-04-22T18:41:49.660Z,100239.00
2023-04-22T18:44:18.384Z,100239.00
2023-04-22T18:46:46.606Z,100240.00
2023-04-22T18:49:14.855Z,100240.00
2023-04-22T18:51:43.017Z,100248.00
2023-04-22T18:54:11.286Z,100248.00
2023-04-22T18:56:39.492Z,100253.00
2023-04-22T18:59:09.202Z,100247.00
2023-04-22T19:01:37.527Z,100249.00
2023-04-22T19:04:07.830Z,100259.00
2023-04-22T19:06:36.311Z,100241.00
2023-04-22T19:09:05.232Z,100244.00
2023-04-22T19:11:33.598Z,100244.00
2023-04-22T19:14:02.916Z,100236.00
2023-04-22T19:16:32.588Z,100244.00
2023-04-22T19:19:00.904Z,100241.00
2023-04-22T19:21:29.977Z,100242.00
2023-04-22T19:23:58.738Z,100234.00
2023-04-22T19:26:28.906Z,100236.00
2023-04-22T19:28:57.198Z,100242.00
2023-04-22T19:31:25.643Z,100210.00
2023-04-22T19:33:55.314Z,100229.00
2023-04-22T19:36:23.696Z,100226.00
2023-04-22T19:38:52.170Z,100236.00
2023-04-22T19:41:20.344Z,100222.00
2023-04-22T19:43:48.943Z,100223.00
2023-04-22T19:46:17.123Z,100210.00
2023-04-22T19:48:46.594Z,100212.00
2023-04-22T19:51:16.917Z,100219.00
2023-04-22T19:53:46.331Z,100208.00
2023-04-22T19:56:15.715Z,100212.00
2023-04-22T19:58:44.665Z,100210.00
2023-04-22T20:01:13.287Z,100207.00
2023-04-22T20:03:42.388Z,100209.00
2023-04-22T20:06:13.446Z,100203.00
2023-04-22T20:08:44.476Z,100195.00
2023-04-22T20:11:13.311Z,100194.00
2023-04-22T20:13:42.304Z,100191.00
2023-04-22T20:16:11.692Z,100201.00
2023-04-22T20:18:40.305Z,100194.00
2023-04-22T20:21:10.025Z,100194.00
2023-04-22T20:23:40.961Z,100197.00
2023-04-22T20:26:10.869Z,100189.00
2023-04-22T20:28:46.502Z,100192.00
2023-04-22T20:31:19.019Z,100185.00
2023-04-22T20:33:47.744Z,100155.00
2023-04-22T20:36:19.527Z,100184.00
2023-04-22T20:38:50.946Z,100185.00
2023-04-22T20:41:21.999Z,100181.00
2023-04-22T20:43:50.502Z,100180.00
2023-04-22T20:46:21.439Z,100173.00
2023-04-22T20:48:50.936Z,100180.00
2023-04-22T20:51:19.133Z,100171.00
2023-04-22T20:53:47.431Z,100168.00
2023-04-22T20:56:15.645Z,100166.00
2023-04-22T20:58:45.219Z,100168.00
